sensor_id;sensor_type;location;lat;lon;timestamp;temperature;humidity
10296;DHT22;5193;51.032;6.356;2023-04-03T00:00:22;1.20;99.90
10296;DHT22;5193;51.032;6.356;2023-04-03T00:02:48;1.20;99.90
10296;DHT22;5193;51.032;6.356;2023-04-03T00:05:14;1.10;99.90
10296;DHT22;5193;51.032;6.356;2023-04-03T00:07:39;1.10;99.90
10296;DHT22;5193;51.032;6.356;2023-04-03T00:10:05;1.10;99.90
10296;DHT22;5193;51.032;6.356;2023-04-03T00:12:31;1.10;99.90
10296;DHT22;5193;51.032;6.356;2023-04-03T00:14:57;1.10;99.90
10296;DHT22;5193;51.032;6.356;2023-04-03T00:17:22;1.10;99.90
10296;DHT22;5193;51.032;6.356;2023-04-03T00:19:48;1.10;99.90
10296;DHT22;5193;51.032;6.356;2023-04-03T00:22:13;1.10;99.90
10296;DHT22;5193;51.032;6.356;2023-04-03T00:24:39;1.20;99.90
10296;DHT22;5193;51.032;6.356;2023-04-03T00:27:04;1.10;99.90
10296;DHT22;5193;51.032;6.356;2023-04-03T00:29:30;1.20;99.90
10296;DHT22;5193;51.032;6.356;2023-04-03T00:31:56;1.20;99.90
10296;DHT22;5193;51.032;6.356;2023-04-03T00:34:21;1.20;99.90
10296;DHT22;5193;51.032;6.356;2023-04-03T00:36:47;1.20;99.90
10296;DHT22;5193;51.032;6.356;2023-04-03T00:39:12;1.10;99.90
10296;DHT22;5193;51.032;6.356;2023-04-03T00:41:38;1.10;99.90
10296;DHT22;5193;51.032;6.356;2023-04-03T00:47:08;1.10;99.90
10296;DHT22;5193;51.032;6.356;2023-04-03T00:49:34;1.10;99.90
10296;DHT22;5193;51.032;6.356;2023-04-03T00:52:01;1.10;99.90
10296;DHT22;5193;51.032;6.356;2023-04-03T00:54:27;1.10;99.90
10296;DHT22;5193;51.032;6.356;2023-04-03T00:56:54;1.10;99.90
10296;DHT22;5193;51.032;6.356;2023-04-03T00:59:24;1.10;99.90
10296;DHT22;5193;51.032;6.356;2023-04-03T01:01:53;1.10;99.90
10296;DHT22;5193;51.032;6.356;2023-04-03T01:04:27;1.10;99.90
10296;DHT22;5193;51.032;6.356;2023-04-03T01:06:56;1.10;99.90
10296;DHT22;5193;51.032;6.356;2023-04-03T01:09:21;1.10;99.90
10296;DHT22;5193;51.032;6.356;2023-04-03T01:11:47;1.20;99.90
10296;DHT22;5193;51.032;6.356;2023-04-03T01:14:13;1.20;99.90
10296;DHT22;5193;51.032;6.356;2023-04-03T01:16:38;1.20;99.90
10296;DHT22;5193;51.032;6.356;2023-04-03T01:19:08;1.20;99.90
10296;DHT22;5193;51.032;6.356;2023-04-03T01:24:38;1.20;99.90
10296;DHT22;5193;51.032;6.356;2023-04-03T01:27:06;1.10;99.90
10296;DHT22;5193;51.032;6.356;2023-04-03T01:29:32;1.10;99.90
10296;DHT22;5193;51.032;6.356;2023-04-03T01:32:00;1.10;99.90
10296;DHT22;5193;51.032;6.356;2023-04-03T01:34:27;1.10;99.90
10296;DHT22;5193;51.032;6.356;2023-04-03T01:36:53;1.00;99.90
10296;DHT22;5193;51.032;6.356;2023-04-03T01:39:19;1.00;99.90
10296;DHT22;5193;51.032;6.356;2023-04-03T01:41:46;0.90;99.90
10296;DHT22;5193;51.032;6.356;2023-04-03T01:44:12;0.90;99.90
10296;DHT22;5193;51.032;6.356;2023-04-03T01:46:37;0.80;99.90
10296;DHT22;5193;51.032;6.356;2023-04-03T01:49:04;0.80;99.90
10296;DHT22;5193;51.032;6.356;2023-04-03T01:51:30;0.70;99.90
10296;DHT22;5193;51.032;6.356;2023-04-03T01:53:56;0.70;99.90
10296;DHT22;5193;51.032;6.356;2023-04-03T01:56:22;0.70;99.90
10296;DHT22;5193;51.032;6.356;2023-04-03T01:58:48;0.70;99.90
10296;DHT22;5193;51.032;6.356;2023-04-03T02:01:13;0.70;99.90
10296;DHT22;5193;51.032;6.356;2023-04-03T02:03:39;0.70;99.90
10296;DHT22;5193;51.032;6.356;2023-04-03T02:06:04;0.70;99.90
10296;DHT22;5193;51.032;6.356;2023-04-03T02:08:30;0.70;99.90
10296;DHT22;5193;51.032;6.356;2023-04-03T02:10:56;0.70;99.90
10296;DHT22;5193;51.032;6.356;2023-04-03T02:13:21;0.80;99.90
10296;DHT22;5193;51.032;6.356;2023-04-03T02:15:47;0.70;99.90
10296;DHT22;5193;51.032;6.356;2023-04-03T02:18:13;0.70;99.90
10296;DHT22;5193;51.032;6.356;2023-04-03T02:20:39;0.70;99.90
10296;DHT22;5193;51.032;6.356;2023-04-03T02:23:04;0.70;99.90
10296;DHT22;5193;51.032;6.356;2023-04-03T02:25:31;0.70;99.90
10296;DHT22;5193;51.032;6.356;2023-04-03T02:27:57;0.70;99.90
10296;DHT22;5193;51.032;6.356;2023-04-03T02:30:23;0.60;99.90
10296;DHT22;5193;51.032;6.356;2023-04-03T02:32:48;0.60;99.90
10296;DHT22;5193;51.032;6.356;2023-04-03T02:35:14;0.60;99.90
10296;DHT22;5193;51.032;6.356;2023-04-03T02:37:40;0.60;99.90
10296;DHT22;5193;51.032;6.356;2023-04-03T02:40:06;0.60;99.90
10296;DHT22;5193;51.032;6.356;2023-04-03T02:42:32;0.60;99.90
10296;DHT22;5193;51.032;6.356;2023-04-03T02:44:58;0.60;99.90
10296;DHT22;5193;51.032;6.356;2023-04-03T02:47:26;0.60;99.90
10296;DHT22;5193;51.032;6.356;2023-04-03T02:49:52;0.60;99.90
10296;DHT22;5193;51.032;6.356;2023-04-03T02:52:18;0.60;99.90
10296;DHT22;5193;51.032;6.356;2023-04-03T02:54:43;0.50;99.90
10296;DHT22;5193;51.032;6.356;2023-04-03T02:57:10;0.60;99.90
10296;DHT22;5193;51.032;6.356;2023-04-03T02:59:38;0.50;99.90
10296;DHT22;5193;51.032;6.356;2023-04-03T03:02:08;0.50;99.90
10296;DHT22;5193;51.032;6.356;2023-04-03T03:04:34;0.50;99.90
10296;DHT22;5193;51.032;6.356;2023-04-03T03:07:00;0.60;99.90
10296;DHT22;5193;51.032;6.356;2023-04-03T03:09:26;0.60;99.90
10296;DHT22;5193;51.032;6.356;2023-04-03T03:11:52;0.60;99.90
10296;DHT22;5193;51.032;6.356;2023-04-03T03:14:17;0.70;99.90
10296;DHT22;5193;51.032;6.356;2023-04-03T03:16:43;0.70;99.90
10296;DHT22;5193;51.032;6.356;2023-04-03T03:19:09;0.70;99.90
10296;DHT22;5193;51.032;6.356;2023-04-03T03:21:34;0.70;99.90
10296;DHT22;5193;51.032;6.356;2023-04-03T03:24:00;0.70;99.90
10296;DHT22;5193;51.032;6.356;2023-04-03T03:26:26;0.70;99.90
10296;DHT22;5193;51.032;6.356;2023-04-03T03:28:51;0.60;99.90
10296;DHT22;5193;51.032;6.356;2023-04-03T03:31:17;0.60;99.90
10296;DHT22;5193;51.032;6.356;2023-04-03T03:33:42;0.60;99.90
10296;DHT22;5193;51.032;6.356;2023-04-03T03:36:08;0.50;99.90
10296;DHT22;5193;51.032;6.356;2023-04-03T03:38:34;0.50;99.90
10296;DHT22;5193;51.032;6.356;2023-04-03T03:40:59;0.40;99.90
10296;DHT22;5193;51.032;6.356;2023-04-03T03:43:25;0.30;99.90
10296;DHT22;5193;51.032;6.356;2023-04-03T03:45:52;0.30;99.90
10296;DHT22;5193;51.032;6.356;2023-04-03T03:48:18;0.20;99.90
10296;DHT22;5193;51.032;6.356;2023-04-03T03:50:43;0.20;99.90
10296;DHT22;5193;51.032;6.356;2023-04-03T03:53:09;0.20;99.90
10296;DHT22;5193;51.032;6.356;2023-04-03T03:55:35;0.20;99.90
10296;DHT22;5193;51.032;6.356;2023-04-03T03:58:00;0.20;99.90
10296;DHT22;5193;51.032;6.356;2023-04-03T04:00:27;0.30;99.90
10296;DHT22;5193;51.032;6.356;2023-04-03T04:02:53;0.30;99.90
10296;DHT22;5193;51.032;6.356;2023-04-03T04:05:19;0.30;99.90
10296;DHT22;5193;51.032;6.356;2023-04-03T04:07:45;0.30;99.90
10296;DHT22;5193;51.032;6.356;2023-04-03T04:10:10;0.30;99.90
10296;DHT22;5193;51.032;6.356;2023-04-03T04:12:36;0.20;99.90
10296;DHT22;5193;51.032;6.356;2023-04-03T04:15:02;0.20;99.90
10296;DHT22;5193;51.032;6.356;2023-04-03T04:17:28;0.20;99.90
10296;DHT22;5193;51.032;6.356;2023-04-03T04:19:54;0.20;99.90
10296;DHT22;5193;51.032;6.356;2023-04-03T04:22:19;0.10;99.90
10296;DHT22;5193;51.032;6.356;2023-04-03T04:24:45;0.10;99.90
10296;DHT22;5193;51.032;6.356;2023-04-03T04:27:10;0.00;99.90
10296;DHT22;5193;51.032;6.356;2023-04-03T04:29:36;0.00;99.90
10296;DHT22;5193;51.032;6.356;2023-04-03T04:32:03;0.00;99.90
10296;DHT22;5193;51.032;6.356;2023-04-03T04:34:29;0.00;99.90
10296;DHT22;5193;51.032;6.356;2023-04-03T04:36:55;0.00;99.90
10296;DHT22;5193;51.032;6.356;2023-04-03T04:39:21;0.00;99.90
10296;DHT22;5193;51.032;6.356;2023-04-03T04:41:46;0.00;99.90
10296;DHT22;5193;51.032;6.356;2023-04-03T04:44:12;0.00;99.90
10296;DHT22;5193;51.032;6.356;2023-04-03T04:46:37;0.10;99.90
10296;DHT22;5193;51.032;6.356;2023-04-03T04:49:03;0.10;99.90
10296;DHT22;5193;51.032;6.356;2023-04-03T04:51:29;0.20;99.90
10296;DHT22;5193;51.032;6.356;2023-04-03T04:53:55;0.20;99.90
10296;DHT22;5193;51.032;6.356;2023-04-03T04:56:21;0.20;99.90
10296;DHT22;5193;51.032;6.356;2023-04-03T04:58:47;0.30;99.90
10296;DHT22;5193;51.032;6.356;2023-04-03T05:01:12;0.30;99.90
10296;DHT22;5193;51.032;6.356;2023-04-03T05:03:38;0.30;99.90
10296;DHT22;5193;51.032;6.356;2023-04-03T05:06:04;0.30;99.90
10296;DHT22;5193;51.032;6.356;2023-04-03T05:08:30;0.40;99.90
10296;DHT22;5193;51.032;6.356;2023-04-03T05:10:56;0.40;99.90
10296;DHT22;5193;51.032;6.356;2023-04-03T05:13:21;0.40;99.90
10296;DHT22;5193;51.032;6.356;2023-04-03T05:15:47;0.40;99.90
10296;DHT22;5193;51.032;6.356;2023-04-03T05:18:13;0.30;99.90
10296;DHT22;5193;51.032;6.356;2023-04-03T05:20:39;0.30;99.90
10296;DHT22;5193;51.032;6.356;2023-04-03T05:23:05;0.40;99.90
10296;DHT22;5193;51.032;6.356;2023-04-03T05:25:31;0.30;99.90
10296;DHT22;5193;51.032;6.356;2023-04-03T05:27:56;0.30;99.90
10296;DHT22;5193;51.032;6.356;2023-04-03T05:30:22;0.30;99.90
10296;DHT22;5193;51.032;6.356;2023-04-03T05:32:48;0.30;99.90
10296;DHT22;5193;51.032;6.356;2023-04-03T05:35:13;0.30;99.90
10296;DHT22;5193;51.032;6.356;2023-04-03T05:37:39;0.30;99.90
10296;DHT22;5193;51.032;6.356;2023-04-03T05:40:06;0.30;99.90
10296;DHT22;5193;51.032;6.356;2023-04-03T05:42:32;0.40;99.90
10296;DHT22;5193;51.032;6.356;2023-04-03T05:44:58;0.40;99.90
10296;DHT22;5193;51.032;6.356;2023-04-03T05:47:23;0.40;99.90
10296;DHT22;5193;51.032;6.356;2023-04-03T05:49:49;0.40;99.90
10296;DHT22;5193;51.032;6.356;2023-04-03T05:52:28;0.40;99.90
10296;DHT22;5193;51.032;6.356;2023-04-03T05:54:55;0.40;99.90
10296;DHT22;5193;51.032;6.356;2023-04-03T05:57:21;0.50;99.90
10296;DHT22;5193;51.032;6.356;2023-04-03T05:59:47;0.50;99.90
10296;DHT22;5193;51.032;6.356;2023-04-03T06:02:15;0.60;99.90
10296;DHT22;5193;51.032;6.356;2023-04-03T06:04:41;0.70;99.90
10296;DHT22;5193;51.032;6.356;2023-04-03T06:07:08;0.70;99.90
10296;DHT22;5193;51.032;6.356;2023-04-03T06:09:35;0.70;99.90
10296;DHT22;5193;51.032;6.356;2023-04-03T06:12:00;0.80;99.90
10296;DHT22;5193;51.032;6.356;2023-04-03T06:14:27;0.80;99.90
10296;DHT22;5193;51.032;6.356;2023-04-03T06:16:53;0.80;99.90
10296;DHT22;5193;51.032;6.356;2023-04-03T06:19:19;0.90;99.90
10296;DHT22;5193;51.032;6.356;2023-04-03T06:21:46;0.90;99.90
10296;DHT22;5193;51.032;6.356;2023-04-03T06:24:15;0.90;99.90
10296;DHT22;5193;51.032;6.356;2023-04-03T06:26:41;1.00;99.90
10296;DHT22;5193;51.032;6.356;2023-04-03T06:29:07;1.10;99.90
10296;DHT22;5193;51.032;6.356;2023-04-03T06:31:33;1.20;99.90
10296;DHT22;5193;51.032;6.356;2023-04-03T06:33:59;1.30;99.90
10296;DHT22;5193;51.032;6.356;2023-04-03T06:36:25;1.40;99.90
10296;DHT22;5193;51.032;6.356;2023-04-03T06:38:51;1.50;99.90
10296;DHT22;5193;51.032;6.356;2023-04-03T06:41:16;1.50;99.90
10296;DHT22;5193;51.032;6.356;2023-04-03T06:43:43;1.70;99.90
10296;DHT22;5193;51.032;6.356;2023-04-03T06:46:21;1.70;99.90
10296;DHT22;5193;51.032;6.356;2023-04-03T06:48:47;1.80;99.90
10296;DHT22;5193;51.032;6.356;2023-04-03T06:51:19;1.80;99.90
10296;DHT22;5193;51.032;6.356;2023-04-03T06:53:45;1.90;99.90
10296;DHT22;5193;51.032;6.356;2023-04-03T06:56:11;1.90;99.90
10296;DHT22;5193;51.032;6.356;2023-04-03T06:58:37;2.00;99.90
10296;DHT22;5193;51.032;6.356;2023-04-03T07:01:02;2.10;99.90
10296;DHT22;5193;51.032;6.356;2023-04-03T07:03:28;2.20;99.90
10296;DHT22;5193;51.032;6.356;2023-04-03T07:05:54;2.20;99.90
10296;DHT22;5193;51.032;6.356;2023-04-03T07:08:19;2.40;99.90
10296;DHT22;5193;51.032;6.356;2023-04-03T07:10:45;2.50;99.90
10296;DHT22;5193;51.032;6.356;2023-04-03T07:13:11;2.50;99.90
10296;DHT22;5193;51.032;6.356;2023-04-03T07:15:36;2.60;99.90
10296;DHT22;5193;51.032;6.356;2023-04-03T07:18:02;2.60;99.90
10296;DHT22;5193;51.032;6.356;2023-04-03T07:20:28;2.70;99.90
10296;DHT22;5193;51.032;6.356;2023-04-03T07:22:54;2.80;99.90
10296;DHT22;5193;51.032;6.356;2023-04-03T07:25:19;2.80;99.90
10296;DHT22;5193;51.032;6.356;2023-04-03T07:27:45;2.90;99.90
10296;DHT22;5193;51.032;6.356;2023-04-03T07:30:11;3.00;99.90
10296;DHT22;5193;51.032;6.356;2023-04-03T07:32:37;3.10;99.90
10296;DHT22;5193;51.032;6.356;2023-04-03T07:35:03;3.20;99.90
10296;DHT22;5193;51.032;6.356;2023-04-03T07:37:28;3.20;99.90
10296;DHT22;5193;51.032;6.356;2023-04-03T07:39:54;3.30;99.90
10296;DHT22;5193;51.032;6.356;2023-04-03T07:42:20;3.40;99.90
10296;DHT22;5193;51.032;6.356;2023-04-03T07:44:46;3.40;99.90
10296;DHT22;5193;51.032;6.356;2023-04-03T07:47:12;3.50;99.90
10296;DHT22;5193;51.032;6.356;2023-04-03T07:49:39;3.60;99.90
10296;DHT22;5193;51.032;6.356;2023-04-03T07:52:06;3.50;99.90
10296;DHT22;5193;51.032;6.356;2023-04-03T07:54:32;3.60;99.90
10296;DHT22;5193;51.032;6.356;2023-04-03T07:56:58;3.70;99.90
10296;DHT22;5193;51.032;6.356;2023-04-03T07:59:24;3.70;99.90
10296;DHT22;5193;51.032;6.356;2023-04-03T08:01:50;3.80;99.90
10296;DHT22;5193;51.032;6.356;2023-04-03T08:04:15;3.80;99.90
10296;DHT22;5193;51.032;6.356;2023-04-03T08:06:41;3.90;99.90
10296;DHT22;5193;51.032;6.356;2023-04-03T08:09:06;4.10;99.90
10296;DHT22;5193;51.032;6.356;2023-04-03T08:11:32;4.20;99.90
10296;DHT22;5193;51.032;6.356;2023-04-03T08:13:58;4.30;99.90
10296;DHT22;5193;51.032;6.356;2023-04-03T08:16:24;4.40;99.90
10296;DHT22;5193;51.032;6.356;2023-04-03T08:18:52;4.40;99.90
10296;DHT22;5193;51.032;6.356;2023-04-03T08:21:17;4.50;99.90
10296;DHT22;5193;51.032;6.356;2023-04-03T08:23:43;4.60;99.90
10296;DHT22;5193;51.032;6.356;2023-04-03T08:26:10;4.70;99.90
10296;DHT22;5193;51.032;6.356;2023-04-03T08:28:36;5.00;99.90
10296;DHT22;5193;51.032;6.356;2023-04-03T08:31:06;5.10;99.90
10296;DHT22;5193;51.032;6.356;2023-04-03T08:33:33;5.20;99.90
10296;DHT22;5193;51.032;6.356;2023-04-03T08:36:02;5.30;99.90
10296;DHT22;5193;51.032;6.356;2023-04-03T08:38:28;5.40;99.90
10296;DHT22;5193;51.032;6.356;2023-04-03T08:44:15;5.50;99.90
10296;DHT22;5193;51.032;6.356;2023-04-03T08:47:23;5.60;99.90
10296;DHT22;5193;51.032;6.356;2023-04-03T08:49:59;5.60;99.90
10296;DHT22;5193;51.032;6.356;2023-04-03T08:54:59;5.70;99.90
10296;DHT22;5193;51.032;6.356;2023-04-03T08:57:44;5.80;99.90
10296;DHT22;5193;51.032;6.356;2023-04-03T09:00:17;5.90;99.90
10296;DHT22;5193;51.032;6.356;2023-04-03T09:02:47;6.00;99.90
10296;DHT22;5193;51.032;6.356;2023-04-03T09:05:19;6.10;99.90
10296;DHT22;5193;51.032;6.356;2023-04-03T09:07:49;6.10;99.90
10296;DHT22;5193;51.032;6.356;2023-04-03T09:10:24;6.10;99.90
10296;DHT22;5193;51.032;6.356;2023-04-03T09:13:24;6.10;99.90
10296;DHT22;5193;51.032;6.356;2023-04-03T09:15:53;6.10;99.90
10296;DHT22;5193;51.032;6.356;2023-04-03T09:18:23;6.20;99.90
10296;DHT22;5193;51.032;6.356;2023-04-03T09:21:14;6.30;99.90
10296;DHT22;5193;51.032;6.356;2023-04-03T09:23:49;6.50;99.90
10296;DHT22;5193;51.032;6.356;2023-04-03T09:28:47;6.60;99.90
10296;DHT22;5193;51.032;6.356;2023-04-03T09:31:24;6.70;99.90
10296;DHT22;5193;51.032;6.356;2023-04-03T09:33:53;6.80;99.90
10296;DHT22;5193;51.032;6.356;2023-04-03T09:39:07;7.10;99.90
10296;DHT22;5193;51.032;6.356;2023-04-03T09:41:35;7.20;99.90
10296;DHT22;5193;51.032;6.356;2023-04-03T09:44:00;7.40;99.90
10296;DHT22;5193;51.032;6.356;2023-04-03T09:46:32;7.60;99.90
10296;DHT22;5193;51.032;6.356;2023-04-03T09:49:03;7.80;99.90
10296;DHT22;5193;51.032;6.356;2023-04-03T09:51:30;7.80;99.90
10296;DHT22;5193;51.032;6.356;2023-04-03T09:53:56;7.80;99.90
10296;DHT22;5193;51.032;6.356;2023-04-03T09:56:27;7.70;99.90
10296;DHT22;5193;51.032;6.356;2023-04-03T10:01:34;7.90;99.90
10296;DHT22;5193;51.032;6.356;2023-04-03T10:06:40;8.10;99.90
10296;DHT22;5193;51.032;6.356;2023-04-03T10:09:29;8.20;99.90
10296;DHT22;5193;51.032;6.356;2023-04-03T10:14:31;8.30;99.90
10296;DHT22;5193;51.032;6.356;2023-04-03T10:19:45;8.40;99.90
10296;DHT22;5193;51.032;6.356;2023-04-03T10:25:21;8.50;99.90
10296;DHT22;5193;51.032;6.356;2023-04-03T10:28:05;8.70;99.90
10296;DHT22;5193;51.032;6.356;2023-04-03T10:36:10;8.50;99.90
10296;DHT22;5193;51.032;6.356;2023-04-03T10:39:00;8.40;99.90
10296;DHT22;5193;51.032;6.356;2023-04-03T10:41:54;8.50;99.90
10296;DHT22;5193;51.032;6.356;2023-04-03T10:55:44;8.80;99.90
10296;DHT22;5193;51.032;6.356;2023-04-03T10:58:33;9.00;99.90
10296;DHT22;5193;51.032;6.356;2023-04-03T11:01:09;9.20;99.90
10296;DHT22;5193;51.032;6.356;2023-04-03T11:03:57;9.50;99.90
10296;DHT22;5193;51.032;6.356;2023-04-03T11:06:34;9.70;99.90
10296;DHT22;5193;51.032;6.356;2023-04-03T11:11:44;9.60;99.90
10296;DHT22;5193;51.032;6.356;2023-04-03T11:16:45;9.50;99.90
10296;DHT22;5193;51.032;6.356;2023-04-03T11:19:18;9.40;99.90
10296;DHT22;5193;51.032;6.356;2023-04-03T11:22:20;9.30;99.90
10296;DHT22;5193;51.032;6.356;2023-04-03T11:24:57;9.20;99.90
10296;DHT22;5193;51.032;6.356;2023-04-03T11:27:24;9.30;99.90
10296;DHT22;5193;51.032;6.356;2023-04-03T11:29:51;9.60;99.90
10296;DHT22;5193;51.032;6.356;2023-04-03T11:32:43;9.90;99.90
10296;DHT22;5193;51.032;6.356;2023-04-03T11:35:14;10.10;99.90
10296;DHT22;5193;51.032;6.356;2023-04-03T11:37:45;10.30;99.90
10296;DHT22;5193;51.032;6.356;2023-04-03T11:42:42;10.50;99.90
10296;DHT22;5193;51.032;6.356;2023-04-03T12:19:33;11.00;99.90
10296;DHT22;5193;51.032;6.356;2023-04-03T12:24:30;11.30;99.90
10296;DHT22;5193;51.032;6.356;2023-04-03T12:27:08;11.30;99.90
10296;DHT22;5193;51.032;6.356;2023-04-03T12:29:42;11.20;99.90
10296;DHT22;5193;51.032;6.356;2023-04-03T12:37:24;11.30;99.90
10296;DHT22;5193;51.032;6.356;2023-04-03T12:40:21;11.50;99.90
10296;DHT22;5193;51.032;6.356;2023-04-03T12:45:25;11.70;99.90
10296;DHT22;5193;51.032;6.356;2023-04-03T12:47:54;11.60;99.90
10296;DHT22;5193;51.032;6.356;2023-04-03T12:50:28;11.60;99.10
10296;DHT22;5193;51.032;6.356;2023-04-03T12:53:01;11.50;99.50
10296;DHT22;5193;51.032;6.356;2023-04-03T12:55:28;11.40;98.70
10296;DHT22;5193;51.032;6.356;2023-04-03T12:57:53;11.30;99.90
10296;DHT22;5193;51.032;6.356;2023-04-03T13:00:34;11.50;99.90
10296;DHT22;5193;51.032;6.356;2023-04-03T13:03:02;11.40;96.70
10296;DHT22;5193;51.032;6.356;2023-04-03T13:05:30;11.30;95.20
10296;DHT22;5193;51.032;6.356;2023-04-03T13:08:00;11.10;97.10
10296;DHT22;5193;51.032;6.356;2023-04-03T13:10:27;11.10;96.70
10296;DHT22;5193;51.032;6.356;2023-04-03T13:13:07;11.10;96.50
10296;DHT22;5193;51.032;6.356;2023-04-03T13:15:43;11.20;96.20
10296;DHT22;5193;51.032;6.356;2023-04-03T13:20:49;11.10;96.10
10296;DHT22;5193;51.032;6.356;2023-04-03T13:23:17;11.00;94.40
10296;DHT22;5193;51.032;6.356;2023-04-03T13:25:47;10.90;96.60
10296;DHT22;5193;51.032;6.356;2023-04-03T13:28:17;10.90;96.00
10296;DHT22;5193;51.032;6.356;2023-04-03T13:30:57;10.90;98.00
10296;DHT22;5193;51.032;6.356;2023-04-03T13:33:26;11.20;99.90
10296;DHT22;5193;51.032;6.356;2023-04-03T13:36:00;11.60;99.90
10296;DHT22;5193;51.032;6.356;2023-04-03T13:38:29;11.70;98.00
10296;DHT22;5193;51.032;6.356;2023-04-03T13:41:02;11.60;97.60
10296;DHT22;5193;51.032;6.356;2023-04-03T13:43:33;11.60;96.80
10296;DHT22;5193;51.032;6.356;2023-04-03T13:48:38;11.40;94.50
10296;DHT22;5193;51.032;6.356;2023-04-03T14:01:46;11.40;93.20
10296;DHT22;5193;51.032;6.356;2023-04-03T14:04:24;11.40;96.70
10296;DHT22;5193;51.032;6.356;2023-04-03T14:06:51;11.60;92.90
10296;DHT22;5193;51.032;6.356;2023-04-03T14:09:18;11.50;90.50
10296;DHT22;5193;51.032;6.356;2023-04-03T14:11:44;11.50;92.90
10296;DHT22;5193;51.032;6.356;2023-04-03T14:14:20;11.50;96.60
10296;DHT22;5193;51.032;6.356;2023-04-03T14:16:50;11.60;92.30
10296;DHT22;5193;51.032;6.356;2023-04-03T14:19:29;11.70;96.80
10296;DHT22;5193;51.032;6.356;2023-04-03T14:21:56;11.80;93.80
10296;DHT22;5193;51.032;6.356;2023-04-03T14:24:22;11.70;93.70
10296;DHT22;5193;51.032;6.356;2023-04-03T14:26:50;11.70;93.30
10296;DHT22;5193;51.032;6.356;2023-04-03T14:29:18;11.70;93.90
10296;DHT22;5193;51.032;6.356;2023-04-03T14:31:46;11.60;92.00
10296;DHT22;5193;51.032;6.356;2023-04-03T14:34:12;11.70;98.70
10296;DHT22;5193;51.032;6.356;2023-04-03T14:36:39;11.80;94.00
10296;DHT22;5193;51.032;6.356;2023-04-03T14:39:07;11.60;92.00
10296;DHT22;5193;51.032;6.356;2023-04-03T14:41:34;11.50;92.00
10296;DHT22;5193;51.032;6.356;2023-04-03T14:44:00;11.40;93.50
10296;DHT22;5193;51.032;6.356;2023-04-03T14:46:34;11.30;95.10
10296;DHT22;5193;51.032;6.356;2023-04-03T14:49:01;11.40;93.80
10296;DHT22;5193;51.032;6.356;2023-04-03T14:51:26;11.30;95.10
10296;DHT22;5193;51.032;6.356;2023-04-03T14:53:52;11.30;94.60
10296;DHT22;5193;51.032;6.356;2023-04-03T14:56:23;11.30;94.40
10296;DHT22;5193;51.032;6.356;2023-04-03T14:58:54;11.30;97.00
10296;DHT22;5193;51.032;6.356;2023-04-03T15:01:20;11.40;94.10
10296;DHT22;5193;51.032;6.356;2023-04-03T15:03:46;11.30;95.90
10296;DHT22;5193;51.032;6.356;2023-04-03T15:06:13;11.40;98.00
10296;DHT22;5193;51.032;6.356;2023-04-03T15:08:40;11.50;94.40
10296;DHT22;5193;51.032;6.356;2023-04-03T15:11:07;11.40;94.60
10296;DHT22;5193;51.032;6.356;2023-04-03T15:13:33;11.20;95.10
10296;DHT22;5193;51.032;6.356;2023-04-03T15:15:59;11.20;97.40
10296;DHT22;5193;51.032;6.356;2023-04-03T15:18:26;11.20;95.20
10296;DHT22;5193;51.032;6.356;2023-04-03T15:20:53;11.10;95.20
10296;DHT22;5193;51.032;6.356;2023-04-03T15:23:19;11.00;96.40
10296;DHT22;5193;51.032;6.356;2023-04-03T15:25:47;11.00;95.10
10296;DHT22;5193;51.032;6.356;2023-04-03T15:28:28;11.00;96.50
10296;DHT22;5193;51.032;6.356;2023-04-03T15:30:54;10.90;95.50
10296;DHT22;5193;51.032;6.356;2023-04-03T15:33:20;10.90;95.00
10296;DHT22;5193;51.032;6.356;2023-04-03T15:35:45;10.90;94.30
10296;DHT22;5193;51.032;6.356;2023-04-03T15:38:11;10.80;96.10
10296;DHT22;5193;51.032;6.356;2023-04-03T15:40:37;10.60;94.90
10296;DHT22;5193;51.032;6.356;2023-04-03T15:43:03;10.60;95.30
10296;DHT22;5193;51.032;6.356;2023-04-03T15:45:29;10.60;94.10
10296;DHT22;5193;51.032;6.356;2023-04-03T15:47:56;10.50;95.00
10296;DHT22;5193;51.032;6.356;2023-04-03T15:50:22;10.50;94.70
10296;DHT22;5193;51.032;6.356;2023-04-03T15:52:49;10.60;96.80
10296;DHT22;5193;51.032;6.356;2023-04-03T15:55:29;10.60;96.40
10296;DHT22;5193;51.032;6.356;2023-04-03T15:57:56;10.70;96.30
10296;DHT22;5193;51.032;6.356;2023-04-03T16:00:22;10.70;96.30
10296;DHT22;5193;51.032;6.356;2023-04-03T16:02:50;10.60;95.50
10296;DHT22;5193;51.032;6.356;2023-04-03T16:05:18;10.60;96.40
10296;DHT22;5193;51.032;6.356;2023-04-03T16:07:44;10.60;96.40
10296;DHT22;5193;51.032;6.356;2023-04-03T16:10:12;10.60;97.30
10296;DHT22;5193;51.032;6.356;2023-04-03T16:12:38;10.60;97.20
10296;DHT22;5193;51.032;6.356;2023-04-03T16:15:04;10.60;98.80
10296;DHT22;5193;51.032;6.356;2023-04-03T16:17:32;10.70;97.20
10296;DHT22;5193;51.032;6.356;2023-04-03T16:19:58;10.60;96.20
10296;DHT22;5193;51.032;6.356;2023-04-03T16:22:26;10.40;96.50
10296;DHT22;5193;51.032;6.356;2023-04-03T16:24:53;10.40;97.30
10296;DHT22;5193;51.032;6.356;2023-04-03T16:27:19;10.30;99.10
10296;DHT22;5193;51.032;6.356;2023-04-03T16:29:44;10.20;98.00
10296;DHT22;5193;51.032;6.356;2023-04-03T16:32:11;10.10;98.20
10296;DHT22;5193;51.032;6.356;2023-04-03T16:34:37;10.00;99.40
10296;DHT22;5193;51.032;6.356;2023-04-03T16:37:03;9.90;99.40
10296;DHT22;5193;51.032;6.356;2023-04-03T16:39:29;9.90;99.90
10296;DHT22;5193;51.032;6.356;2023-04-03T16:41:54;9.90;99.90
10296;DHT22;5193;51.032;6.356;2023-04-03T16:44:20;9.90;98.90
10296;DHT22;5193;51.032;6.356;2023-04-03T16:46:45;9.80;99.80
10296;DHT22;5193;51.032;6.356;2023-04-03T16:49:11;9.80;99.50
10296;DHT22;5193;51.032;6.356;2023-04-03T16:51:37;9.60;99.90
10296;DHT22;5193;51.032;6.356;2023-04-03T16:54:02;9.60;99.50
10296;DHT22;5193;51.032;6.356;2023-04-03T16:56:28;9.60;99.90
10296;DHT22;5193;51.032;6.356;2023-04-03T16:58:54;9.50;98.60
10296;DHT22;5193;51.032;6.356;2023-04-03T17:01:21;9.40;99.90
10296;DHT22;5193;51.032;6.356;2023-04-03T17:03:47;9.40;99.90
10296;DHT22;5193;51.032;6.356;2023-04-03T17:06:17;9.20;99.90
10296;DHT22;5193;51.032;6.356;2023-04-03T17:08:44;9.10;99.90
10296;DHT22;5193;51.032;6.356;2023-04-03T17:11:10;9.10;99.90
10296;DHT22;5193;51.032;6.356;2023-04-03T17:13:36;8.90;99.90
10296;DHT22;5193;51.032;6.356;2023-04-03T17:16:03;8.80;99.90
10296;DHT22;5193;51.032;6.356;2023-04-03T17:18:31;8.70;99.90
10296;DHT22;5193;51.032;6.356;2023-04-03T17:20:57;8.60;99.90
10296;DHT22;5193;51.032;6.356;2023-04-03T17:23:24;8.60;99.90
10296;DHT22;5193;51.032;6.356;2023-04-03T17:25:51;8.60;99.90
10296;DHT22;5193;51.032;6.356;2023-04-03T17:28:17;8.40;99.90
10296;DHT22;5193;51.032;6.356;2023-04-03T17:30:42;8.40;99.90
10296;DHT22;5193;51.032;6.356;2023-04-03T17:33:08;8.30;99.90
10296;DHT22;5193;51.032;6.356;2023-04-03T17:35:34;8.20;99.90
10296;DHT22;5193;51.032;6.356;2023-04-03T17:37:59;8.20;99.90
10296;DHT22;5193;51.032;6.356;2023-04-03T17:40:25;8.10;99.90
10296;DHT22;5193;51.032;6.356;2023-04-03T17:42:51;8.10;99.90
10296;DHT22;5193;51.032;6.356;2023-04-03T17:45:17;8.00;99.90
10296;DHT22;5193;51.032;6.356;2023-04-03T17:47:42;7.90;99.90
10296;DHT22;5193;51.032;6.356;2023-04-03T17:50:08;7.90;99.90
10296;DHT22;5193;51.032;6.356;2023-04-03T17:52:34;7.80;99.90
10296;DHT22;5193;51.032;6.356;2023-04-03T17:54:59;7.70;99.90
10296;DHT22;5193;51.032;6.356;2023-04-03T17:57:25;7.60;99.90